»·PEaware :: N13M KCMA-KSNA

N13M :: KCMA-KSNA

FLIGHT INFORMATION

Flight Status: Arrived
Operator: Privately registered:
United States
More flights under this callsign
Pilot: Zhuojun Y. (28503)
Aircraft: SOCATA TBM-900
(TBM9)
More flights by this aircraft type
Origin: KCMA Camarillo
United States
Destination: KSNA John Wayne-Orange Co
United States
More flights between these airports :: More routes between these airports
Route:
File this flight plan on PilotEdge
Remarks:
Altitude:
(Current/Filed)
5,500ft
Speed:
(Current/Filed)
150kts
Departed: 28-Mar-20 07:28 AM
Arrived: 28-Mar-20 08:13 AM
Distance/Time
Traveled:
69nm/0:45
Distance/Time
To Go:
Arrived

Flight Plot

Page will automatically refresh every two minutes.


Map Options




Map Legend


Flown Route
Filed Route
Departure Airport
Arrival Airport
Navaid (VOR, NDB)
Fix

Horizontal Profiles

Position Reports

Time Latitude Longitude Heading Altitude Ground
Speed
28-Mar-20 07:12 34.210350 -119.076481 90 77ft 0kts
28-Mar-20 07:13 34.210350 -119.076481 90 77ft 0kts
28-Mar-20 07:14 34.210350 -119.076481 90 77ft 0kts
28-Mar-20 07:15 34.210350 -119.076481 90 77ft 0kts
28-Mar-20 07:16 34.210350 -119.076481 90 77ft 0kts
28-Mar-20 07:17 34.210350 -119.076481 90 77ft 0kts
28-Mar-20 07:18 34.210350 -119.076481 90 77ft 0kts
28-Mar-20 07:19 34.210350 -119.076481 90 77ft 0kts
28-Mar-20 07:20 34.210350 -119.076481 90 77ft 0kts
28-Mar-20 07:21 34.210876 -119.078143 271 77ft 14kts
28-Mar-20 07:22 34.210927 -119.083651 270 77ft 19kts
28-Mar-20 07:23 34.211593 -119.084617 357 77ft 7kts
28-Mar-20 07:24 34.212711 -119.084615 0 77ft 0kts
28-Mar-20 07:25 34.212711 -119.084615 0 77ft 0kts
28-Mar-20 07:26 34.213494 -119.084685 322 77ft 8kts
28-Mar-20 07:27 34.213690 -119.101303 266 315ft 96kts
28-Mar-20 07:28 34.200907 -119.108132 109 1362ft 110kts
28-Mar-20 07:29 34.198266 -119.072241 88 2361ft 121kts
28-Mar-20 07:30 34.201165 -119.034576 85 3587ft 127kts
28-Mar-20 07:31 34.202682 -118.992229 85 4559ft 140kts
28-Mar-20 07:32 34.205165 -118.941510 86 4625ft 181kts
28-Mar-20 07:33 34.208168 -118.888495 85 4851ft 183kts
28-Mar-20 07:34 34.211237 -118.834471 85 5121ft 182kts
28-Mar-20 07:35 34.214194 -118.782693 85 5287ft 172kts
28-Mar-20 07:36 34.217007 -118.733714 85 5283ft 165kts
28-Mar-20 07:37 34.219001 -118.690559 87 5286ft 158kts
28-Mar-20 07:38 34.220129 -118.651512 87 5288ft 156kts
28-Mar-20 07:39 34.217492 -118.611820 95 5289ft 155kts
28-Mar-20 07:40 34.217466 -118.577582 111 5290ft 154kts
28-Mar-20 07:41 34.190510 -118.555474 155 5271ft 155kts
28-Mar-20 07:42 34.160671 -118.539602 156 5271ft 155kts
28-Mar-20 07:43 34.129750 -118.524365 162 5270ft 155kts
28-Mar-20 07:44 34.098777 -118.509861 158 5271ft 155kts
28-Mar-20 07:45 34.069188 -118.494782 156 5271ft 155kts
28-Mar-20 07:46 34.041101 -118.479980 153 5271ft 155kts
28-Mar-20 07:47 34.010610 -118.468822 164 5271ft 155kts
28-Mar-20 07:48 33.980825 -118.455101 156 5271ft 155kts
28-Mar-20 07:49 33.952200 -118.440381 156 5271ft 155kts
28-Mar-20 07:50 33.922950 -118.423701 123 5264ft 155kts
28-Mar-20 07:51 33.904227 -118.399712 136 5272ft 155kts
28-Mar-20 07:52 33.884674 -118.377920 136 5271ft 155kts
28-Mar-20 07:53 33.862330 -118.353043 137 5271ft 155kts
28-Mar-20 07:54 33.841444 -118.330110 137 5271ft 155kts
28-Mar-20 07:57 33.789378 -118.273376 138 4289ft 147kts
28-Mar-20 07:58 33.762450 -118.243871 130 3723ft 175kts
28-Mar-20 07:59 33.743134 -118.204118 116 3262ft 164kts
28-Mar-20 08:00 33.726280 -118.162181 115 3255ft 145kts
28-Mar-20 08:01 33.719656 -118.121226 99 3012ft 150kts
28-Mar-20 08:02 33.713089 -118.081109 101 2782ft 151kts
28-Mar-20 08:03 33.707330 -118.048104 101 2766ft 144kts
28-Mar-20 08:04 33.701273 -118.013560 101 2769ft 141kts
28-Mar-20 08:05 33.695503 -117.980722 101 2769ft 139kts
28-Mar-20 08:06 33.689877 -117.946596 98 2466ft 149kts
28-Mar-20 08:07 33.690192 -117.913275 76 1865ft 143kts
28-Mar-20 08:08 33.697586 -117.890104 65 1458ft 131kts
28-Mar-20 08:09 33.706526 -117.860721 79 963ft 103kts
28-Mar-20 08:10 33.690687 -117.857590 205 360ft 87kts
28-Mar-20 08:11 33.676976 -117.868041 208 59ft 55kts
28-Mar-20 08:12 33.674285 -117.870998 295 59ft 10kts
28-Mar-20 08:13 33.674362 -117.871195 292 59ft 4kts
28-Mar-20 08:14 33.674861 -117.872020 308 59ft 0kts
28-Mar-20 08:15 33.674861 -117.872020 308 59ft 0kts
28-Mar-20 08:17 33.674861 -117.872020 308 59ft 0kts
28-Mar-20 08:18 33.674861 -117.872020 308 59ft 0kts
28-Mar-20 08:19 33.674861 -117.872020 308 59ft 0kts
28-Mar-20 08:20 33.674861 -117.872020 308 59ft 0kts
28-Mar-20 08:21 33.674861 -117.872020 308 59ft 0kts
28-Mar-20 08:22 33.674861 -117.872020 308 59ft 0kts

Navigation Log

Ident Type
Flight plan parsing failed, navigation log unavailable